createdAt,value
2017-07-12T00:00:15.138Z,0
2017-07-12T00:01:15.178Z,0
2017-07-12T00:02:15.220Z,0
2017-07-12T00:03:15.260Z,0
2017-07-12T00:04:15.294Z,0
2017-07-12T00:05:15.339Z,0
2017-07-12T00:06:15.379Z,0
2017-07-12T00:07:15.416Z,0
2017-07-12T00:08:15.454Z,0
2017-07-12T00:09:15.484Z,0
2017-07-12T00:10:15.533Z,0
2017-07-12T00:11:15.575Z,0
2017-07-12T00:12:15.602Z,0
2017-07-12T00:13:15.962Z,0
2017-07-12T00:14:16.020Z,0
2017-07-12T00:15:15.746Z,0
2017-07-12T00:16:15.762Z,0
2017-07-12T00:17:15.825Z,0
2017-07-12T00:18:15.850Z,0
2017-07-12T00:19:15.890Z,0
2017-07-12T00:20:15.928Z,0
2017-07-12T00:21:15.960Z,0
2017-07-12T00:22:16.006Z,0
2017-07-12T00:23:16.039Z,0
2017-07-12T00:24:16.086Z,0
2017-07-12T00:25:16.127Z,0
2017-07-12T00:26:16.160Z,0
2017-07-12T00:27:16.194Z,0
2017-07-12T00:28:16.245Z,0
2017-07-12T00:29:16.274Z,0
2017-07-12T00:30:16.322Z,0
2017-07-12T00:31:16.362Z,0
2017-07-12T00:32:16.391Z,0
2017-07-12T00:33:16.444Z,0
2017-07-12T00:34:16.472Z,0
2017-07-12T00:35:16.520Z,0
2017-07-12T00:36:16.548Z,0
2017-07-12T00:37:16.598Z,0
2017-07-12T00:38:16.639Z,0
2017-07-12T00:39:16.667Z,0
2017-07-12T00:40:16.719Z,0
2017-07-12T00:41:16.753Z,0
2017-07-12T00:42:16.794Z,0
2017-07-12T00:43:16.834Z,0
2017-07-12T00:44:16.872Z,0
2017-07-12T00:45:16.913Z,0
2017-07-12T00:46:16.941Z,0
2017-07-12T00:47:17.006Z,0
2017-07-12T00:48:17.020Z,0
2017-07-12T00:49:17.071Z,0
2017-07-12T00:50:17.101Z,0
2017-07-12T00:51:17.139Z,0
2017-07-12T00:52:17.176Z,0
2017-07-12T00:53:17.217Z,0
2017-07-12T00:54:17.267Z,0
2017-07-12T00:55:17.306Z,0
2017-07-12T00:56:17.343Z,0
2017-07-12T00:57:17.381Z,0
2017-07-12T00:58:17.413Z,0
2017-07-12T00:59:17.465Z,0
2017-07-12T01:00:17.502Z,0
2017-07-12T01:01:17.540Z,0
2017-07-12T01:02:17.582Z,0
2017-07-12T01:03:17.618Z,0
2017-07-12T01:04:17.648Z,0
2017-07-12T01:05:17.688Z,0
2017-07-12T01:06:17.738Z,0
2017-07-12T01:07:17.768Z,0
2017-07-12T01:08:18.137Z,0
2017-07-12T01:09:17.858Z,0
2017-07-12T01:10:17.883Z,0
2017-07-12T01:11:17.933Z,0
2017-07-12T01:12:17.969Z,0
2017-07-12T01:13:18.001Z,0
2017-07-12T01:14:18.054Z,0
2017-07-12T01:15:18.086Z,0
2017-07-12T01:16:18.124Z,0
2017-07-12T01:17:18.168Z,0
2017-07-12T01:18:18.204Z,0
2017-07-12T01:19:18.244Z,0
2017-07-12T01:20:18.274Z,0
2017-07-12T01:21:18.312Z,0
2017-07-12T01:22:18.361Z,0
2017-07-12T01:23:18.401Z,0
2017-07-12T01:24:18.430Z,0
2017-07-12T01:25:18.479Z,0
2017-07-12T01:26:18.509Z,0
2017-07-12T01:27:18.551Z,0
2017-07-12T01:28:18.588Z,0
2017-07-12T01:29:18.634Z,0
2017-07-12T01:30:18.663Z,0
2017-07-12T01:31:19.032Z,0
2017-07-12T01:32:18.742Z,0
2017-07-12T01:33:18.790Z,0
2017-07-12T01:34:18.830Z,0
2017-07-12T01:35:18.867Z,0
2017-07-12T01:36:18.899Z,0
2017-07-12T01:37:18.936Z,0
2017-07-12T01:38:18.994Z,0
2017-07-12T01:39:19.020Z,0
2017-07-12T01:40:19.066Z,0
2017-07-12T01:41:19.139Z,0
2017-07-12T01:42:19.141Z,0
2017-07-12T01:43:19.177Z,0
2017-07-12T01:44:19.533Z,0
2017-07-12T01:45:19.258Z,0
2017-07-12T01:46:19.289Z,0
2017-07-12T01:47:19.339Z,0
2017-07-12T01:48:19.367Z,0
2017-07-12T01:49:19.416Z,0
2017-07-12T01:50:19.453Z,0
2017-07-12T01:51:19.494Z,0
2017-07-12T01:52:19.524Z,0
2017-07-12T01:53:19.573Z,0
2017-07-12T01:54:19.600Z,0
2017-07-12T01:55:19.648Z,0
2017-07-12T01:56:19.679Z,0
2017-07-12T01:57:19.726Z,0
2017-07-12T01:58:19.763Z,0
2017-07-12T01:59:19.794Z,0
2017-07-12T02:00:19.848Z,0
2017-07-12T02:01:19.886Z,0
2017-07-12T02:02:19.922Z,0
2017-07-12T02:03:19.962Z,0
2017-07-12T02:04:19.988Z,0
2017-07-12T02:05:20.029Z,0
2017-07-12T02:06:20.081Z,0
2017-07-12T02:07:20.107Z,0
2017-07-12T02:08:20.155Z,0
2017-07-12T02:09:20.192Z,0
2017-07-12T02:10:20.225Z,0
2017-07-12T02:11:20.263Z,0
2017-07-12T02:12:20.314Z,0
2017-07-12T02:13:20.353Z,0
2017-07-12T02:14:20.392Z,0
2017-07-12T02:15:20.430Z,0
2017-07-12T02:16:20.462Z,0
2017-07-12T02:17:20.728Z,0
2017-07-12T02:18:20.536Z,0
2017-07-12T02:19:20.587Z,0
2017-07-12T02:20:20.616Z,0
2017-07-12T02:21:20.980Z,0
2017-07-12T02:22:20.705Z,0
2017-07-12T02:23:20.738Z,0
2017-07-12T02:24:20.769Z,0
2017-07-12T02:25:20.821Z,4
2017-07-12T02:26:20.849Z,4
2017-07-12T02:27:20.889Z,4
2017-07-12T02:28:20.937Z,0
2017-07-12T02:29:20.978Z,4
2017-07-12T02:30:21.013Z,4
2017-07-12T02:31:21.054Z,8
2017-07-12T02:32:21.087Z,4
2017-07-12T02:33:21.130Z,8
2017-07-12T02:34:21.171Z,4
2017-07-12T02:35:21.210Z,8
2017-07-12T02:36:21.246Z,8
2017-07-12T02:37:21.278Z,12
2017-07-12T02:38:21.327Z,12
2017-07-12T02:39:21.354Z,12
2017-07-12T02:40:21.407Z,12
2017-07-12T02:41:21.445Z,16
2017-07-12T02:42:21.473Z,16
2017-07-12T02:43:21.519Z,20
2017-07-12T02:44:21.555Z,24
2017-07-12T02:45:21.589Z,24
2017-07-12T02:46:21.628Z,28
2017-07-12T02:47:21.675Z,32
2017-07-12T02:48:21.714Z,40
2017-07-12T02:49:21.745Z,40
2017-07-12T02:50:21.793Z,48
2017-07-12T02:51:21.828Z,48
2017-07-12T02:52:21.861Z,56
2017-07-12T02:53:21.911Z,64
2017-07-12T02:54:21.941Z,68
2017-07-12T02:55:21.989Z,76
2017-07-12T02:56:22.025Z,84
2017-07-12T02:57:22.057Z,92
2017-07-12T02:58:22.106Z,104
2017-07-12T02:59:22.145Z,112
2017-07-12T03:00:22.176Z,124
2017-07-12T03:01:22.220Z,132
2017-07-12T03:02:22.259Z,144
2017-07-12T03:03:22.298Z,156
2017-07-12T03:04:22.335Z,172
2017-07-12T03:05:22.375Z,184
2017-07-12T03:06:22.405Z,204
2017-07-12T03:07:22.455Z,220
2017-07-12T03:08:22.485Z,240
2017-07-12T03:09:22.532Z,256
2017-07-12T03:10:22.570Z,272
2017-07-12T03:11:22.597Z,292
2017-07-12T03:12:22.649Z,312
2017-07-12T03:13:22.688Z,332
2017-07-12T03:14:22.729Z,356
2017-07-12T03:15:22.762Z,380
2017-07-12T03:16:22.792Z,404
2017-07-12T03:17:22.842Z,436
2017-07-12T03:18:22.880Z,464
2017-07-12T03:19:22.908Z,504
2017-07-12T03:20:22.949Z,544
2017-07-12T03:21:22.998Z,588
2017-07-12T03:22:23.026Z,616
2017-07-12T03:23:23.078Z,672
2017-07-12T03:24:23.111Z,728
2017-07-12T03:25:23.149Z,768
2017-07-12T03:26:23.192Z,808
2017-07-12T03:27:23.233Z,856
2017-07-12T03:28:23.259Z,908
2017-07-12T03:29:23.308Z,964
2017-07-12T03:30:23.345Z,1016
2017-07-12T03:31:23.377Z,1080
2017-07-12T03:32:23.419Z,1256
2017-07-12T03:33:23.455Z,1588
2017-07-12T03:34:23.496Z,1796
2017-07-12T03:35:23.547Z,1912
2017-07-12T03:36:23.575Z,2056
2017-07-12T03:37:23.693Z,2228
2017-07-12T03:38:23.649Z,2412
2017-07-12T03:39:23.696Z,2604
2017-07-12T03:40:23.735Z,2828
2017-07-12T03:41:23.777Z,2956
2017-07-12T03:42:23.815Z,3024
2017-07-12T03:43:23.857Z,3028
2017-07-12T03:44:23.895Z,3056
2017-07-12T03:45:23.928Z,3180
2017-07-12T03:46:23.966Z,3476
2017-07-12T03:47:24.016Z,3600
2017-07-12T03:48:24.050Z,3296
2017-07-12T03:49:24.096Z,3372
2017-07-12T03:50:24.125Z,4112
2017-07-12T03:51:24.174Z,4852
2017-07-12T03:52:24.539Z,5156
2017-07-12T03:53:24.255Z,5452
2017-07-12T03:54:24.297Z,5644
2017-07-12T03:55:24.329Z,4504
2017-07-12T03:56:24.695Z,2400
2017-07-12T03:57:24.419Z,2144
2017-07-12T03:58:24.457Z,2120
2017-07-12T03:59:24.502Z,2100
2017-07-12T04:00:24.544Z,2100
2017-07-12T04:01:24.584Z,2128
2017-07-12T04:02:24.626Z,2296
2017-07-12T04:03:24.662Z,2108
2017-07-12T04:04:24.702Z,2108
2017-07-12T04:05:24.871Z,2120
2017-07-12T04:06:24.788Z,2284
2017-07-12T04:07:24.820Z,3852
2017-07-12T04:08:24.870Z,2400
2017-07-12T04:09:24.901Z,2368
2017-07-12T04:10:24.949Z,2580
2017-07-12T04:11:24.981Z,2868
2017-07-12T04:12:25.031Z,3316
2017-07-12T04:13:25.072Z,3380
2017-07-12T04:14:25.111Z,4280
2017-07-12T04:15:25.141Z,4100
2017-07-12T04:16:25.183Z,4316
2017-07-12T04:17:25.222Z,4720
2017-07-12T04:18:25.273Z,2872
2017-07-12T04:19:25.314Z,2684
2017-07-12T04:20:25.352Z,2556
2017-07-12T04:21:25.392Z,2508
2017-07-12T04:22:25.431Z,2496
2017-07-12T04:23:25.461Z,2448
2017-07-12T04:24:25.829Z,2416
2017-07-12T04:25:25.544Z,2400
2017-07-12T04:26:25.594Z,2384
2017-07-12T04:27:25.627Z,2348
2017-07-12T04:28:25.670Z,2288
2017-07-12T04:29:25.717Z,2256
2017-07-12T04:30:25.742Z,2240
2017-07-12T04:31:25.784Z,2268
2017-07-12T04:32:25.829Z,2320
2017-07-12T04:33:25.873Z,2380
2017-07-12T04:34:25.915Z,2428
2017-07-12T04:35:25.953Z,2500
2017-07-12T04:36:25.991Z,2616
2017-07-12T04:37:26.022Z,2752
2017-07-12T04:38:26.073Z,2920
2017-07-12T04:39:26.101Z,3068
2017-07-12T04:40:26.151Z,3216
2017-07-12T04:41:26.191Z,3364
2017-07-12T04:42:26.221Z,3512
2017-07-12T04:43:26.589Z,3632
2017-07-12T04:44:26.311Z,3736
2017-07-12T04:45:26.344Z,3852
2017-07-12T04:46:26.389Z,3888
2017-07-12T04:47:26.436Z,3816
2017-07-12T04:48:26.461Z,3736
2017-07-12T04:49:26.513Z,3692
2017-07-12T04:50:26.541Z,3820
2017-07-12T04:51:26.582Z,4000
2017-07-12T04:52:26.631Z,4220
2017-07-12T04:53:26.662Z,4452
2017-07-12T04:54:26.713Z,4632
2017-07-12T04:55:26.749Z,4576
2017-07-12T04:56:26.780Z,4300
2017-07-12T04:57:26.832Z,3904
2017-07-12T04:58:27.081Z,3592
2017-07-12T04:59:26.899Z,3444
2017-07-12T05:00:26.948Z,3332
2017-07-12T05:01:26.990Z,3112
2017-07-12T05:02:27.026Z,2852
2017-07-12T05:03:27.062Z,2572
2017-07-12T05:04:27.108Z,2308
2017-07-12T05:05:27.465Z,2080
2017-07-12T05:06:27.191Z,1900
2017-07-12T05:07:27.222Z,1760
2017-07-12T05:08:27.271Z,1704
2017-07-12T05:09:27.308Z,1732
2017-07-12T05:10:27.338Z,1840
2017-07-12T05:11:27.390Z,2012
2017-07-12T05:12:27.432Z,2208
2017-07-12T05:13:27.459Z,2388
2017-07-12T05:14:27.500Z,2520
2017-07-12T05:15:27.549Z,2624
2017-07-12T05:16:27.589Z,2736
2017-07-12T05:17:27.631Z,2844
2017-07-12T05:18:27.662Z,2968
2017-07-12T05:19:27.706Z,3160
2017-07-12T05:20:27.739Z,3424
2017-07-12T05:21:27.779Z,3700
2017-07-12T05:22:27.819Z,3916
2017-07-12T05:23:27.858Z,3908
2017-07-12T05:24:27.911Z,3752
2017-07-12T05:25:27.941Z,3608
2017-07-12T05:26:27.987Z,3580
2017-07-12T05:27:28.027Z,3696
2017-07-12T05:28:28.058Z,4048
2017-07-12T05:29:28.109Z,4260
2017-07-12T05:30:28.137Z,4096
2017-07-12T05:31:28.177Z,3884
2017-07-12T05:32:28.218Z,3988
2017-07-12T05:33:28.261Z,4396
2017-07-12T05:34:28.348Z,4900
2017-07-12T05:35:28.339Z,5456
2017-07-12T05:36:28.381Z,5984
2017-07-12T05:37:29.243Z,6452
2017-07-12T05:38:28.470Z,6772
2017-07-12T05:39:29.210Z,6888
2017-07-12T05:40:28.542Z,6988
2017-07-12T05:41:29.039Z,6840
2017-07-12T05:42:28.619Z,6452
2017-07-12T05:43:28.670Z,6392
2017-07-12T05:44:28.709Z,6344
2017-07-12T05:45:28.739Z,6376
2017-07-12T05:46:30.128Z,6608
2017-07-12T05:47:28.833Z,6904
2017-07-12T05:48:28.874Z,7216
2017-07-12T05:49:28.912Z,7700
2017-07-12T05:50:28.944Z,8052
2017-07-12T05:51:28.995Z,8004
2017-07-12T05:52:29.024Z,7280
2017-07-12T05:53:29.074Z,6424
2017-07-12T05:54:29.113Z,5632
2017-07-12T05:55:29.154Z,5260
2017-07-12T05:56:29.187Z,5240
2017-07-12T05:57:29.236Z,5232
2017-07-12T05:58:29.276Z,4852
2017-07-12T05:59:29.317Z,4484
2017-07-12T06:00:29.360Z,4620
2017-07-12T06:01:29.393Z,5112
2017-07-12T06:02:29.438Z,5536
2017-07-12T06:03:29.484Z,5928
2017-07-12T06:04:29.631Z,5880
2017-07-12T06:05:29.588Z,5284
2017-07-12T06:06:29.602Z,4420
2017-07-12T06:07:29.631Z,3576
2017-07-12T06:08:29.688Z,2904
2017-07-12T06:09:29.715Z,2460
2017-07-12T06:10:29.756Z,2360
2017-07-12T06:11:29.804Z,2508
2017-07-12T06:12:29.840Z,2544
2017-07-12T06:13:29.891Z,2484
2017-07-12T06:14:29.924Z,2540
2017-07-12T06:15:29.967Z,2748
2017-07-12T06:16:30.141Z,2968
2017-07-12T06:17:30.045Z,2968
2017-07-12T06:18:30.089Z,2812
2017-07-12T06:19:30.159Z,2724
2017-07-12T06:20:30.159Z,2732
2017-07-12T06:21:30.211Z,2812
2017-07-12T06:22:30.240Z,2828
2017-07-12T06:23:30.293Z,2720
2017-07-12T06:24:30.335Z,2656
2017-07-12T06:25:30.369Z,2736
2017-07-12T06:26:30.915Z,2904
2017-07-12T06:27:30.598Z,3076
2017-07-12T06:28:30.481Z,3176
2017-07-12T06:29:30.544Z,3188
2017-07-12T06:30:30.563Z,3132
2017-07-12T06:31:30.604Z,3080
2017-07-12T06:32:30.652Z,3072
2017-07-12T06:33:30.692Z,3048
2017-07-12T06:34:30.738Z,2944
2017-07-12T06:35:30.766Z,2808
2017-07-12T06:36:30.813Z,2724
2017-07-12T06:37:30.854Z,2712
2017-07-12T06:38:30.884Z,2692
2017-07-12T06:39:30.955Z,2592
2017-07-12T06:40:30.966Z,2468
2017-07-12T06:41:32.312Z,2352
2017-07-12T06:42:31.045Z,2284
2017-07-12T06:43:31.086Z,2320
2017-07-12T06:44:31.145Z,2496
2017-07-12T06:45:31.167Z,2848
2017-07-12T06:46:31.216Z,3376
2017-07-12T06:47:31.256Z,3828
2017-07-12T06:48:31.295Z,4096
2017-07-12T06:49:31.332Z,4156
2017-07-12T06:50:31.365Z,4108
2017-07-12T06:51:31.416Z,4080
2017-07-12T06:52:31.449Z,4096
2017-07-12T06:53:31.489Z,4036
2017-07-12T06:54:31.529Z,3900
2017-07-12T06:55:31.568Z,3744
2017-07-12T06:56:31.609Z,3712
2017-07-12T06:57:31.660Z,3880
2017-07-12T06:58:31.732Z,4228
2017-07-12T06:59:31.734Z,4648
2017-07-12T07:00:31.780Z,5060
2017-07-12T07:01:31.821Z,5416
2017-07-12T07:02:31.852Z,5592
2017-07-12T07:03:31.892Z,5464
2017-07-12T07:04:32.338Z,5228
2017-07-12T07:05:31.983Z,5232
2017-07-12T07:06:32.026Z,5612
2017-07-12T07:07:32.067Z,6076
2017-07-12T07:08:32.107Z,6328
2017-07-12T07:09:32.137Z,6408
2017-07-12T07:10:32.752Z,6252
2017-07-12T07:11:32.230Z,5844
2017-07-12T07:12:32.259Z,5568
2017-07-12T07:13:32.338Z,5432
2017-07-12T07:14:32.350Z,5080
2017-07-12T07:15:32.382Z,4456
2017-07-12T07:16:32.432Z,4040
2017-07-12T07:17:32.473Z,3984
2017-07-12T07:18:32.503Z,4180
2017-07-12T07:19:32.543Z,4452
2017-07-12T07:20:32.586Z,4684
2017-07-12T07:21:32.640Z,4920
2017-07-12T07:22:32.728Z,5084
2017-07-12T07:23:32.705Z,5120
2017-07-12T07:24:33.078Z,5108
2017-07-12T07:25:32.799Z,5152
2017-07-12T07:26:32.830Z,5248
2017-07-12T07:27:32.881Z,5412
2017-07-12T07:28:32.930Z,5680
2017-07-12T07:29:32.952Z,5880
2017-07-12T07:30:33.001Z,5896
2017-07-12T07:31:33.035Z,5796
2017-07-12T07:32:33.083Z,5740
2017-07-12T07:33:33.114Z,5744
2017-07-12T07:34:33.162Z,5688
2017-07-12T07:35:33.205Z,5656
2017-07-12T07:36:33.247Z,5772
2017-07-12T07:37:33.278Z,5988
2017-07-12T07:38:33.320Z,6220
2017-07-12T07:39:33.408Z,6512
2017-07-12T07:40:33.414Z,6804
2017-07-12T07:41:33.758Z,7036
2017-07-12T07:42:33.481Z,7120
2017-07-12T07:43:33.559Z,7140
2017-07-12T07:44:33.564Z,7308
2017-07-12T07:45:33.954Z,7540
2017-07-12T07:46:33.766Z,7756
2017-07-12T07:47:33.690Z,8016
2017-07-12T07:48:33.731Z,8344
2017-07-12T07:49:33.846Z,8704
2017-07-12T07:50:33.822Z,9104
2017-07-12T07:51:33.865Z,9560
2017-07-12T07:52:33.896Z,10008
2017-07-12T07:53:33.962Z,10256
2017-07-12T07:54:33.979Z,10300
2017-07-12T07:55:34.033Z,10188
2017-07-12T07:56:34.229Z,10120
2017-07-12T07:57:34.419Z,10120
2017-07-12T07:58:34.144Z,10248
2017-07-12T07:59:34.187Z,10744
2017-07-12T08:00:34.233Z,11084
2017-07-12T08:01:34.270Z,11212
2017-07-12T08:02:34.312Z,10988
2017-07-12T08:03:34.372Z,10408
2017-07-12T08:04:34.404Z,9980
2017-07-12T08:05:34.468Z,9816
2017-07-12T08:06:34.484Z,9984
2017-07-12T08:07:34.522Z,10196
2017-07-12T08:08:34.572Z,10488
2017-07-12T08:09:34.604Z,10860
2017-07-12T08:10:34.654Z,11132
2017-07-12T08:11:34.687Z,11284
2017-07-12T08:12:34.738Z,11560
2017-07-12T08:13:34.771Z,12204
2017-07-12T08:14:34.813Z,13280
2017-07-12T08:15:34.866Z,14324
2017-07-12T08:16:34.898Z,15708
2017-07-12T08:17:34.950Z,17472
2017-07-12T08:18:34.991Z,19520
2017-07-12T08:19:35.024Z,22176
2017-07-12T08:20:35.082Z,24608
2017-07-12T08:21:35.121Z,28416
2017-07-12T08:22:35.160Z,41536
2017-07-12T08:23:35.205Z,38176
2017-07-12T08:24:35.238Z,39296
2017-07-12T08:25:35.293Z,33856
2017-07-12T08:26:35.324Z,36192
2017-07-12T08:27:35.709Z,31744
2017-07-12T08:28:35.416Z,33440
2017-07-12T08:29:35.469Z,31104
2017-07-12T08:30:35.511Z,29216
2017-07-12T08:31:35.556Z,25184
2017-07-12T08:32:35.911Z,21984
2017-07-12T08:33:35.645Z,19232
2017-07-12T08:34:35.689Z,17376
2017-07-12T08:35:35.736Z,16072
2017-07-12T08:36:35.785Z,15492
2017-07-12T08:37:35.827Z,15488
2017-07-12T08:38:35.860Z,15460
2017-07-12T08:39:35.919Z,15072
2017-07-12T08:40:35.960Z,14688
2017-07-12T08:41:35.994Z,14444
2017-07-12T08:42:36.050Z,14492
2017-07-12T08:43:36.081Z,14844
2017-07-12T08:44:36.139Z,15520
2017-07-12T08:45:36.172Z,16292
2017-07-12T08:46:36.226Z,17184
2017-07-12T08:47:36.269Z,18112
2017-07-12T08:48:36.312Z,18048
2017-07-12T08:49:36.348Z,18592
2017-07-12T08:50:36.403Z,19776
2017-07-12T08:51:36.451Z,22112
2017-07-12T08:52:36.484Z,28448
2017-07-12T08:53:36.536Z,39200
2017-07-12T08:54:36.568Z,44576
2017-07-12T08:55:36.628Z,43424
2017-07-12T08:56:36.659Z,72384
2017-07-12T08:57:36.714Z,42144
2017-07-12T08:58:36.751Z,33920
2017-07-12T08:59:36.799Z,27296
2017-07-12T09:00:36.841Z,25056
2017-07-12T09:01:36.896Z,24768
2017-07-12T09:02:36.941Z,26784
2017-07-12T09:03:36.994Z,23968
2017-07-12T09:04:37.034Z,21792
2017-07-12T09:05:37.078Z,21344
2017-07-12T09:06:37.125Z,21152
2017-07-12T09:07:37.171Z,21184
2017-07-12T09:08:37.217Z,20992
2017-07-12T09:09:37.268Z,21408
2017-07-12T09:10:37.311Z,22304
2017-07-12T09:11:37.344Z,23136
2017-07-12T09:12:37.401Z,24128
2017-07-12T09:13:37.447Z,22848
2017-07-12T09:14:37.483Z,22400
2017-07-12T09:15:37.528Z,22016
2017-07-12T09:16:37.572Z,21696
2017-07-12T09:17:37.627Z,22112
2017-07-12T09:18:37.663Z,23488
2017-07-12T09:19:37.710Z,26400
2017-07-12T09:20:37.767Z,29120
2017-07-12T09:21:37.800Z,29728
2017-07-12T09:22:37.847Z,30944
2017-07-12T09:23:37.897Z,45728
2017-07-12T09:33:38.693Z,34816
2017-07-12T09:34:38.399Z,36288
2017-07-12T09:35:38.459Z,44768
2017-07-12T09:36:38.493Z,45568
2017-07-12T09:37:38.544Z,34144
2017-07-12T09:38:38.911Z,24992
2017-07-12T09:39:38.640Z,22112
2017-07-12T09:40:38.687Z,20064
2017-07-12T09:41:38.724Z,18944
2017-07-12T09:42:38.782Z,18912
2017-07-12T09:43:38.815Z,19616
2017-07-12T09:44:38.875Z,19072
2017-07-12T09:45:38.919Z,18976
2017-07-12T09:46:38.954Z,18752
2017-07-12T09:47:39.330Z,19968
2017-07-12T09:48:39.050Z,20224
2017-07-12T09:49:39.093Z,20704
2017-07-12T09:50:39.151Z,22880
2017-07-12T09:51:39.185Z,41312
2017-07-12T09:52:39.243Z,31616
2017-07-12T09:53:39.294Z,27456
2017-07-12T09:54:39.338Z,22848
2017-07-12T09:55:39.688Z,20320
2017-07-12T09:56:39.428Z,22912
2017-07-12T09:57:39.460Z,19072
2017-07-12T09:58:39.517Z,16800
2017-07-12T09:59:39.555Z,16328
2017-07-12T10:00:39.601Z,16960
2017-07-12T10:01:39.748Z,17184
2017-07-12T10:02:39.708Z,18176
2017-07-12T10:03:39.745Z,24480
2017-07-12T10:04:39.806Z,39680
2017-07-12T10:05:39.841Z,25280
2017-07-12T10:06:39.877Z,27904
2017-07-12T10:07:39.932Z,24960
2017-07-12T10:08:39.978Z,23808
2017-07-12T10:09:40.343Z,21984
2017-07-12T10:10:40.075Z,21280
2017-07-12T10:11:40.114Z,19648
2017-07-12T10:12:40.162Z,18272
2017-07-12T10:13:40.197Z,17088
2017-07-12T10:14:40.242Z,15936
2017-07-12T10:15:40.288Z,15028
2017-07-12T10:16:40.333Z,14288
2017-07-12T10:17:40.391Z,13648
2017-07-12T10:18:40.426Z,13220
2017-07-12T10:19:40.470Z,13104
2017-07-12T10:20:40.524Z,13656
2017-07-12T10:21:40.562Z,15084
2017-07-12T10:22:40.607Z,16140
2017-07-12T10:23:40.655Z,14880
2017-07-12T10:24:40.707Z,13132
2017-07-12T10:25:40.771Z,11208
2017-07-12T10:26:40.794Z,9320
2017-07-12T10:27:40.971Z,7732
2017-07-12T10:28:40.896Z,6468
2017-07-12T10:29:40.932Z,5576
2017-07-12T10:30:40.973Z,5076
2017-07-12T10:31:41.012Z,4928
2017-07-12T10:32:41.064Z,5220
2017-07-12T10:33:41.101Z,6424
2017-07-12T10:34:41.155Z,10288
2017-07-12T10:35:41.197Z,15440
2017-07-12T10:36:41.549Z,21024
2017-07-12T10:37:41.275Z,22944
2017-07-12T10:38:41.320Z,26336
2017-07-12T10:39:41.373Z,28896
2017-07-12T10:40:41.419Z,26368
2017-07-12T10:41:41.452Z,35520
2017-07-12T10:42:41.507Z,34848
2017-07-12T10:43:41.545Z,26336
2017-07-12T10:44:41.597Z,23200
2017-07-12T10:45:41.641Z,21536
2017-07-12T10:46:41.685Z,20512
2017-07-12T10:47:41.724Z,19648
2017-07-12T10:48:41.777Z,18080
2017-07-12T10:49:41.823Z,16020
2017-07-12T10:50:41.859Z,14284
2017-07-12T10:51:41.913Z,12728
2017-07-12T10:52:41.960Z,11204
2017-07-12T10:53:41.995Z,9828
2017-07-12T10:54:42.044Z,9236
2017-07-12T10:55:42.094Z,10020
2017-07-12T10:56:42.140Z,11848
2017-07-12T10:57:42.194Z,12324
2017-07-12T10:58:42.230Z,11240
2017-07-12T10:59:42.265Z,10648
2017-07-12T11:00:42.319Z,10416
2017-07-12T11:01:42.353Z,10624
2017-07-12T11:02:42.410Z,10840
2017-07-12T11:03:42.454Z,10736
2017-07-12T11:04:42.489Z,10180
2017-07-12T11:05:42.546Z,9272
2017-07-12T11:06:42.577Z,8512
2017-07-12T11:07:42.635Z,7720
2017-07-12T11:08:42.898Z,6708
2017-07-12T11:09:42.720Z,5736
2017-07-12T11:10:42.766Z,5304
2017-07-12T11:11:42.800Z,5428
2017-07-12T11:12:42.852Z,5628
2017-07-12T11:13:42.889Z,5524
2017-07-12T11:14:42.942Z,5012
2017-07-12T11:15:42.983Z,4280
2017-07-12T11:16:43.026Z,3640
2017-07-12T11:17:43.072Z,3164
2017-07-12T11:18:43.108Z,2936
2017-07-12T11:19:43.150Z,3072
2017-07-12T11:20:43.203Z,3532
2017-07-12T11:21:43.236Z,4104
2017-07-12T11:22:43.290Z,4640
2017-07-12T11:23:43.323Z,4948
2017-07-12T11:24:43.375Z,4944
2017-07-12T11:25:43.419Z,4748
2017-07-12T11:26:43.465Z,4500
2017-07-12T11:27:43.520Z,4300
2017-07-12T11:28:43.547Z,4288
2017-07-12T11:29:43.592Z,4492
2017-07-12T11:30:43.634Z,4824
2017-07-12T11:31:43.668Z,5072
2017-07-12T11:32:43.719Z,5112
2017-07-12T11:33:43.757Z,5072
2017-07-12T11:34:43.805Z,4956
2017-07-12T11:35:43.838Z,4692
2017-07-12T11:36:43.891Z,4344
2017-07-12T11:37:43.950Z,4020
2017-07-12T11:38:43.968Z,3780
2017-07-12T11:39:44.019Z,3680
2017-07-12T11:40:44.057Z,3792
2017-07-12T11:41:44.096Z,4056
2017-07-12T11:42:44.149Z,4276
2017-07-12T11:43:44.192Z,4316
2017-07-12T11:44:44.222Z,4144
2017-07-12T11:45:44.278Z,3980
2017-07-12T11:46:44.310Z,3828
2017-07-12T11:47:44.352Z,3604
2017-07-12T11:48:44.406Z,3296
2017-07-12T11:49:44.437Z,3000
2017-07-12T11:50:44.490Z,2852
2017-07-12T11:51:44.520Z,2936
2017-07-12T11:52:44.572Z,3212
2017-07-12T11:53:44.605Z,3540
2017-07-12T11:54:44.660Z,3668
2017-07-12T11:55:44.697Z,3600
2017-07-12T11:56:44.735Z,3508
2017-07-12T11:57:44.788Z,3544
2017-07-12T11:58:44.827Z,3712
2017-07-12T11:59:44.870Z,4012
2017-07-12T12:00:44.903Z,4364
2017-07-12T12:01:44.957Z,4616
2017-07-12T12:02:44.997Z,4752
2017-07-12T12:03:45.053Z,4800
2017-07-12T12:04:45.083Z,4716
2017-07-12T12:05:45.127Z,4392
2017-07-12T12:06:45.155Z,3888
2017-07-12T12:07:45.209Z,3404
2017-07-12T12:08:45.251Z,3044
2017-07-12T12:09:45.282Z,2900
2017-07-12T12:10:45.334Z,2932
2017-07-12T12:11:45.376Z,2964
2017-07-12T12:12:45.407Z,3004
2017-07-12T12:13:45.461Z,3100
2017-07-12T12:14:45.494Z,3176
2017-07-12T12:15:45.545Z,3188
2017-07-12T12:16:45.592Z,3352
2017-07-12T12:17:45.620Z,3536
2017-07-12T12:18:45.671Z,3536
2017-07-12T12:19:45.712Z,3456
2017-07-12T12:20:45.745Z,3288
2017-07-12T12:21:45.800Z,3068
2017-07-12T12:22:45.832Z,3016
2017-07-12T12:23:45.868Z,3056
2017-07-12T12:24:45.925Z,3104
2017-07-12T12:25:45.959Z,3136
2017-07-12T12:26:45.999Z,3072
2017-07-12T12:27:46.049Z,2908
2017-07-12T12:28:46.080Z,2752
2017-07-12T12:29:46.135Z,2608
2017-07-12T12:30:46.164Z,2532
2017-07-12T12:31:46.219Z,2476
2017-07-12T12:32:46.247Z,2392
2017-07-12T12:33:46.609Z,2372
2017-07-12T12:34:46.340Z,2424
2017-07-12T12:35:46.371Z,2540
2017-07-12T12:36:46.426Z,2684
2017-07-12T12:37:46.452Z,2824
2017-07-12T12:38:46.506Z,3132
2017-07-12T12:39:46.536Z,3556
2017-07-12T12:40:46.589Z,3816
2017-07-12T12:41:46.629Z,3944
2017-07-12T12:42:46.668Z,4112
2017-07-12T12:43:46.714Z,4124
2017-07-12T12:44:46.746Z,3904
2017-07-12T12:45:46.798Z,3588
2017-07-12T12:46:46.830Z,3300
2017-07-12T12:47:46.881Z,2992
2017-07-12T12:48:46.908Z,2636
2017-07-12T12:49:46.959Z,2364
2017-07-12T12:50:46.991Z,2216
2017-07-12T12:51:47.353Z,1920
2017-07-12T12:52:47.090Z,1520
2017-07-12T12:53:47.117Z,1248
2017-07-12T12:54:47.169Z,1304
2017-07-12T12:55:47.198Z,1616
2017-07-12T12:56:47.598Z,1840
2017-07-12T12:57:47.300Z,1960
2017-07-12T12:58:47.334Z,2112
2017-07-12T12:59:47.373Z,2312
2017-07-12T13:00:47.416Z,2524
2017-07-12T13:01:47.759Z,2708
2017-07-12T13:02:47.495Z,2720
2017-07-12T13:03:47.537Z,2640
2017-07-12T13:04:47.568Z,2700
2017-07-12T13:05:47.621Z,2980
2017-07-12T13:06:47.662Z,3288
2017-07-12T13:07:47.698Z,3472
2017-07-12T13:08:47.743Z,3544
2017-07-12T13:09:47.774Z,3604
2017-07-12T13:10:47.823Z,3732
2017-07-12T13:11:47.856Z,3724
2017-07-12T13:12:47.897Z,3640
2017-07-12T13:13:47.948Z,3560
2017-07-12T13:14:47.976Z,3448
2017-07-12T13:15:48.032Z,3344
2017-07-12T13:16:48.061Z,3240
2017-07-12T13:17:48.108Z,3144
2017-07-12T13:18:48.155Z,3108
2017-07-12T13:19:48.181Z,3052
2017-07-12T13:20:48.232Z,2872
2017-07-12T13:21:48.273Z,2620
2017-07-12T13:22:48.316Z,2424
2017-07-12T13:23:48.349Z,2284
2017-07-12T13:24:48.394Z,2372
2017-07-12T13:25:48.430Z,2552
2017-07-12T13:26:48.478Z,2696
2017-07-12T13:27:48.515Z,2844
2017-07-12T13:28:48.560Z,2972
2017-07-12T13:29:48.592Z,3008
2017-07-12T13:30:48.638Z,2912
2017-07-12T13:31:48.679Z,2772
2017-07-12T13:32:48.716Z,2632
2017-07-12T13:33:48.756Z,2520
2017-07-12T13:34:48.803Z,2488
2017-07-12T13:35:48.839Z,2516
2017-07-12T13:36:48.885Z,2580
2017-07-12T13:37:48.919Z,2696
2017-07-12T13:38:48.963Z,2864
2017-07-12T13:39:49.000Z,3172